Time;durP1;ratioP1;P1;durP2;ratioP2;P2;SDS_P1;SDS_P2;PMS_P1;PMS_P2;Temp;Humidity;BMP_temperature;BMP_pressure;BME280_temperature;BME280_humidity;BME280_pressure;Samples;Min_cycle;Max_cycle;Signal;HPM_P1;HPM_P2
2022/03/23 00:00:25;;;;;;;19.35;12.82;;;7.70;93.60;;;;;;6079720;23;20237;-88
2022/03/23 00:02:53;;;;;;;23.67;14.15;;;7.80;93.30;;;;;;6078739;23;20549;-88
2022/03/23 00:05:28;;;;;;;17.90;13.10;;;7.50;93.30;;;;;;6079129;23;20240;-88
2022/03/23 00:07:56;;;;;;;20.17;11.98;;;7.60;93.60;;;;;;6079883;23;20157;-87
2022/03/23 00:10:23;;;;;;;20.98;14.05;;;7.60;93.60;;;;;;6076389;23;20526;-88
2022/03/23 00:12:51;;;;;;;22.00;13.70;;;7.60;93.40;;;;;;6084664;23;20197;-88
2022/03/23 00:15:18;;;;;;;20.90;13.95;;;7.70;93.20;;;;;;6079454;23;20461;-88
2022/03/23 00:17:50;;;;;;;24.92;12.70;;;7.70;93.10;;;;;;6086594;23;20185;-87
2022/03/23 00:20:18;;;;;;;19.73;12.98;;;7.60;93.00;;;;;;6085351;23;20181;-87
2022/03/23 00:22:45;;;;;;;19.17;12.07;;;7.50;93.20;;;;;;6083131;23;20209;-86
2022/03/23 00:25:12;;;;;;;19.05;13.05;;;7.40;93.60;;;;;;6076952;23;20185;-86
2022/03/23 00:27:48;;;;;;;22.90;13.02;;;7.40;93.70;;;;;;6082124;23;20196;-87
2022/03/23 00:30:15;;;;;;;19.52;12.63;;;7.40;93.90;;;;;;6082387;23;20320;-87
2022/03/23 00:32:42;;;;;;;18.35;13.02;;;7.40;93.80;;;;;;6080965;23;20546;-87
2022/03/23 00:35:09;;;;;;;18.27;13.18;;;7.30;93.70;;;;;;6078564;23;20181;-87
2022/03/23 00:37:38;;;;;;;22.48;14.10;;;7.40;93.80;;;;;;6078049;23;20185;-87
2022/03/23 00:40:05;;;;;;;19.13;13.25;;;7.30;93.90;;;;;;6091513;23;20178;-87
2022/03/23 00:42:34;;;;;;;19.10;13.43;;;7.30;93.90;;;;;;6090697;23;20205;-87
2022/03/23 00:45:03;;;;;;;20.40;13.43;;;7.30;93.90;;;;;;6083449;23;20192;-88
2022/03/23 00:47:30;;;;;;;20.92;13.73;;;7.30;93.90;;;;;;6089910;23;20205;-87
2022/03/23 00:50:05;;;;;;;21.27;13.32;;;7.30;93.90;;;;;;6085206;23;20196;-86
2022/03/23 00:52:37;;;;;;;21.88;13.02;;;7.30;93.90;;;;;;6088485;23;20231;-87
2022/03/23 00:55:11;;;;;;;19.13;11.75;;;7.20;93.90;;;;;;6086854;23;20169;-89
2022/03/23 00:57:38;;;;;;;17.77;12.30;;;7.20;93.90;;;;;;6083132;23;20173;-86
2022/03/23 01:00:10;;;;;;;19.42;13.10;;;7.30;93.70;;;;;;6081849;23;20182;-87
2022/03/23 01:02:37;;;;;;;19.35;12.85;;;7.30;93.70;;;;;;6092671;23;20288;-85
2022/03/23 01:05:05;;;;;;;15.85;12.00;;;7.20;93.80;;;;;;6081382;23;20178;-86
2022/03/23 01:07:32;;;;;;;17.08;11.90;;;7.10;93.80;;;;;;6084825;23;20703;-87
2022/03/23 01:09:59;;;;;;;17.33;12.75;;;7.00;94.10;;;;;;6092109;23;20176;-85
2022/03/23 01:12:27;;;;;;;17.83;11.90;;;7.10;94.10;;;;;;6086236;23;20257;-86
2022/03/23 01:14:55;;;;;;;21.38;12.55;;;6.90;94.30;;;;;;6085103;23;20694;-87
2022/03/23 01:17:21;;;;;;;17.05;11.68;;;6.80;94.40;;;;;;6076173;23;20233;-85
2022/03/23 01:19:48;;;;;;;21.10;11.52;;;6.70;94.60;;;;;;6085472;23;20193;-87
2022/03/23 01:22:16;;;;;;;16.70;11.02;;;6.80;95.20;;;;;;6093053;23;20201;-87
2022/03/23 01:24:47;;;;;;;19.00;12.25;;;6.80;94.90;;;;;;6086783;23;20185;-87
2022/03/23 01:27:14;;;;;;;17.40;11.40;;;6.80;94.70;;;;;;6092693;23;20185;-86
2022/03/23 01:29:42;;;;;;;15.68;12.18;;;6.80;94.80;;;;;;6080705;23;20178;-88
2022/03/23 01:32:10;;;;;;;18.13;12.50;;;6.80;94.60;;;;;;6079126;23;20233;-86
2022/03/23 01:34:37;;;;;;;14.90;11.60;;;6.80;94.50;;;;;;6077875;23;20209;-87
2022/03/23 01:37:04;;;;;;;19.35;11.68;;;6.90;94.60;;;;;;6079212;23;20233;-87
2022/03/23 01:39:36;;;;;;;18.55;12.40;;;6.80;94.50;;;;;;6084068;23;20206;-88
2022/03/23 01:44:46;;;;;;;17.73;11.23;;;6.30;94.10;;;;;;6081707;23;20189;-88
2022/03/23 01:47:16;;;;;;;20.23;11.98;;;6.70;94.30;;;;;;6088578;23;20186;-87
2022/03/23 01:49:48;;;;;;;15.63;10.40;;;6.70;94.30;;;;;;6088791;23;20162;-87
2022/03/23 01:52:32;;;;;;;16.40;11.23;;;6.40;94.10;;;;;;6080670;23;20201;-87
2022/03/23 01:55:01;;;;;;;17.58;12.30;;;6.90;94.40;;;;;;6076692;23;20193;-87
2022/03/23 01:57:29;;;;;;;19.02;11.43;;;6.70;94.40;;;;;;6075579;23;20181;-87
2022/03/23 01:59:58;;;;;;;16.48;11.35;;;6.60;94.60;;;;;;6076995;23;20224;-87
2022/03/23 02:02:25;;;;;;;17.75;12.20;;;6.20;94.30;;;;;;6076752;23;20209;-87
2022/03/23 02:04:52;;;;;;;16.90;11.68;;;6.60;94.70;;;;;;6078997;23;20237;-87
2022/03/23 02:07:19;;;;;;;17.73;11.07;;;6.60;94.70;;;;;;6089209;23;20185;-87
2022/03/23 02:09:46;;;;;;;16.48;11.80;;;6.70;94.10;;;;;;6079248;23;20185;-87
2022/03/23 02:12:13;;;;;;;16.63;11.82;;;6.60;94.20;;;;;;6087135;23;20236;-86
2022/03/23 02:14:40;;;;;;;16.77;11.40;;;6.50;94.60;;;;;;6088536;23;20192;-85
2022/03/23 02:17:09;;;;;;;17.90;11.55;;;6.40;94.50;;;;;;6090476;23;20185;-87
2022/03/23 02:19:37;;;;;;;16.80;11.85;;;6.30;94.50;;;;;;6089071;23;20178;-86
2022/03/23 02:22:06;;;;;;;19.80;12.40;;;5.90;94.90;;;;;;6087325;23;20224;-86
2022/03/23 02:24:34;;;;;;;22.10;12.93;;;6.20;95.30;;;;;;6078164;23;20192;-87
2022/03/23 02:27:04;;;;;;;17.63;11.10;;;6.20;95.50;;;;;;6092272;23;20185;-87
2022/03/23 02:29:32;;;;;;;15.88;11.05;;;6.20;95.20;;;;;;6087858;23;20162;-87
2022/03/23 02:32:01;;;;;;;21.50;11.57;;;6.20;95.20;;;;;;6074292;23;20703;-87
2022/03/23 02:34:28;;;;;;;18.27;12.40;;;6.20;95.20;;;;;;6080820;23;20181;-86
2022/03/23 02:36:56;;;;;;;16.52;11.23;;;5.70;95.20;;;;;;6093531;23;20182;-87
2022/03/23 02:39:25;;;;;;;17.58;11.63;;;6.10;95.70;;;;;;6092032;23;20193;-87
2022/03/23 02:41:53;;;;;;;15.02;10.85;;;5.70;95.60;;;;;;6079586;23;20265;-87
2022/03/23 02:44:21;;;;;;;18.02;10.80;;;5.60;95.70;;;;;;6076842;23;20569;-88
2022/03/23 02:46:48;;;;;;;18.10;11.25;;;6.00;95.90;;;;;;6076331;23;20213;-86
2022/03/23 02:49:16;;;;;;;17.73;10.50;;;5.90;96.10;;;;;;6076034;23;20177;-86
2022/03/23 02:51:44;;;;;;;16.20;11.48;;;6.00;96.30;;;;;;6075288;23;20691;-86
2022/03/23 03:02:42;;;;;;;18.17;11.77;;;6.00;96.20;;;;;;6077615;23;20273;-87
2022/03/23 03:05:10;;;;;;;16.85;11.20;;;5.80;96.40;;;;;;6075537;23;20184;-87
2022/03/23 03:10:19;;;;;;;16.38;11.18;;;5.80;96.60;;;;;;6043916;23;20179;-88
2022/03/23 03:12:48;;;;;;;14.27;10.95;;;5.80;96.60;;;;;;6074817;23;20236;-87
2022/03/23 03:15:15;;;;;;;17.60;10.52;;;5.70;96.80;;;;;;6077399;23;20181;-87
2022/03/23 03:17:42;;;;;;;16.40;11.00;;;6.00;97.20;;;;;;6075434;23;20181;-87
2022/03/23 03:20:10;;;;;;;16.15;11.65;;;6.00;96.60;;;;;;6078907;23;20237;-87
2022/03/23 03:22:40;;;;;;;16.80;11.77;;;6.00;96.60;;;;;;6090886;23;20198;-86
2022/03/23 03:25:08;;;;;;;14.73;9.95;;;5.60;96.60;;;;;;6080584;23;20190;-88
2022/03/23 03:27:39;;;;;;;17.40;10.68;;;5.80;96.90;;;;;;6076818;23;20265;-87
2022/03/23 03:30:10;;;;;;;15.43;10.77;;;5.70;96.90;;;;;;6075182;23;20169;-87
2022/03/23 03:32:38;;;;;;;18.30;11.60;;;5.70;97.20;;;;;;6071684;23;20694;-86
2022/03/23 03:35:05;;;;;;;19.38;10.68;;;5.40;97.40;;;;;;6071389;23;20185;-85
2022/03/23 03:37:33;;;;;;;17.27;11.15;;;5.70;97.80;;;;;;6079031;23;20201;-85
2022/03/23 03:40:00;;;;;;;15.45;10.80;;;5.60;97.80;;;;;;6093491;23;20233;-86
2022/03/23 03:42:27;;;;;;;18.90;11.68;;;5.30;97.30;;;;;;6084324;23;20257;-87
2022/03/23 03:44:54;;;;;;;14.95;10.25;;;5.80;97.40;;;;;;6076003;23;20269;-87
2022/03/23 03:47:23;;;;;;;16.45;10.98;;;5.70;97.20;;;;;;6076268;23;20205;-86
2022/03/23 03:49:50;;;;;;;18.35;11.27;;;5.70;97.40;;;;;;6091946;23;20185;-86
2022/03/23 03:52:18;;;;;;;17.90;11.27;;;5.60;97.50;;;;;;6091858;23;20257;-87
2022/03/23 03:54:45;;;;;;;21.45;11.75;;;5.90;97.60;;;;;;6086466;23;20182;-87
2022/03/23 03:57:12;;;;;;;16.13;11.50;;;5.70;97.60;;;;;;6076769;23;20186;-86
2022/03/23 03:59:39;;;;;;;18.63;11.60;;;5.70;97.40;;;;;;6076384;23;20585;-88
2022/03/23 04:02:07;;;;;;;19.83;11.13;;;5.80;97.60;;;;;;6087145;23;20209;-85
2022/03/23 04:04:35;;;;;;;16.63;10.82;;;5.30;97.50;;;;;;6095614;23;20222;-85
2022/03/23 04:07:04;;;;;;;21.05;10.98;;;5.50;97.90;;;;;;6089418;23;20177;-87
2022/03/23 04:09:31;;;;;;;15.48;11.23;;;5.20;98.50;;;;;;6091051;23;20166;-85
2022/03/23 04:11:58;;;;;;;17.52;11.68;;;5.40;99.00;;;;;;6095890;23;20242;-86
2022/03/23 04:14:24;;;;;;;18.25;12.10;;;5.40;98.80;;;;;;6083706;23;20213;-86
2022/03/23 04:16:52;;;;;;;19.35;13.00;;;5.50;98.90;;;;;;6077375;23;20185;-87
2022/03/23 04:19:19;;;;;;;19.15;12.30;;;5.30;99.00;;;;;;6087578;23;20205;-87
2022/03/23 04:21:47;;;;;;;17.58;11.80;;;5.20;99.40;;;;;;6094334;23;20255;-87
2022/03/23 04:24:14;;;;;;;17.17;10.98;;;5.20;99.60;;;;;;6082283;23;20257;-88
2022/03/23 04:26:41;;;;;;;18.25;11.70;;;5.30;99.70;;;;;;6074617;23;20186;-87
2022/03/23 04:29:07;;;;;;;19.52;11.30;;;5.30;99.60;;;;;;6075153;23;20693;-86
2022/03/23 04:31:35;;;;;;;15.90;10.80;;;5.20;99.70;;;;;;6075680;23;20276;-86
2022/03/23 04:34:01;;;;;;;18.30;11.75;;;5.50;99.60;;;;;;6074265;23;20200;-87
2022/03/23 04:36:28;;;;;;;18.70;11.85;;;5.00;99.20;;;;;;6073812;23;20192;-86
2022/03/23 04:38:56;;;;;;;16.73;11.57;;;5.60;99.30;;;;;;6076496;23;20181;-88
2022/03/23 04:41:23;;;;;;;16.15;11.07;;;5.50;99.20;;;;;;6078174;23;20206;-86
2022/03/23 04:43:50;;;;;;;18.55;11.27;;;5.60;99.40;;;;;;6077393;23;20205;-86
2022/03/23 04:46:17;;;;;;;23.00;12.65;;;4.90;99.20;;;;;;6077629;23;20188;-86
2022/03/23 04:48:44;;;;;;;16.95;11.57;;;4.90;99.70;;;;;;6076711;23;20257;-87
2022/03/23 04:51:12;;;;;;;20.35;12.57;;;5.10;99.90;;;;;;6075549;23;20181;-88
2022/03/23 04:53:39;;;;;;;17.55;12.45;;;4.60;99.90;;;;;;6092923;23;20252;-85
2022/03/23 04:56:09;;;;;;;20.27;12.52;;;5.10;99.90;;;;;;6093930;23;20161;-85
2022/03/23 04:58:36;;;;;;;21.85;13.27;;;4.80;99.90;;;;;;6085173;23;20189;-88
2022/03/23 05:01:03;;;;;;;19.17;12.57;;;5.20;99.90;;;;;;6076542;23;20543;-88
2022/03/23 05:03:30;;;;;;;18.83;12.13;;;5.10;99.90;;;;;;6074990;23;20212;-88
2022/03/23 05:05:57;;;;;;;17.65;11.88;;;5.20;99.90;;;;;;6075973;23;20525;-87
2022/03/23 05:08:24;;;;;;;21.70;13.00;;;5.10;99.90;;;;;;6076032;23;20256;-87
2022/03/23 05:10:51;;;;;;;21.58;12.07;;;5.10;99.90;;;;;;6086126;23;20188;-88
2022/03/23 05:13:20;;;;;;;24.80;12.27;;;5.10;99.90;;;;;;6083683;23;20197;-87
2022/03/23 05:15:47;;;;;;;23.15;12.65;;;5.20;99.90;;;;;;6076285;23;20568;-88
2022/03/23 05:18:14;;;;;;;19.92;11.85;;;5.00;99.90;;;;;;6075982;23;20184;-88
2022/03/23 05:20:41;;;;;;;20.23;13.35;;;4.70;99.90;;;;;;6074901;23;20213;-86
2022/03/23 05:23:12;;;;;;;22.17;13.00;;;5.00;99.90;;;;;;6073893;23;20213;-85
2022/03/23 05:25:41;;;;;;;20.40;12.80;;;4.40;99.90;;;;;;6074962;23;20169;-85
2022/03/23 05:28:10;;;;;;;20.55;13.65;;;4.90;99.90;;;;;;6084950;23;20165;-88
2022/03/23 05:30:40;;;;;;;22.50;14.00;;;4.80;99.90;;;;;;6095534;23;20201;-88
2022/03/23 05:35:53;;;;;;;19.42;12.77;;;4.50;99.90;;;;;;6091596;23;20170;-88
2022/03/23 05:38:24;;;;;;;20.73;13.23;;;5.00;99.90;;;;;;6076463;23;20553;-88
2022/03/23 05:40:58;;;;;;;26.35;13.48;;;5.10;99.90;;;;;;6075192;23;20170;-87
2022/03/23 05:43:37;;;;;;;20.25;12.50;;;5.10;99.90;;;;;;6074692;23;20376;-86
2022/03/23 05:46:06;;;;;;;19.05;12.18;;;4.70;99.90;;;;;;6076990;23;20648;-86
2022/03/23 05:48:53;;;;;;;27.10;14.07;;;4.90;99.90;;;;;;6084670;23;20178;-85
2022/03/23 05:51:20;;;;;;;23.73;14.20;;;5.10;99.90;;;;;;6093731;23;20169;-84
2022/03/23 05:53:47;;;;;;;20.15;12.75;;;4.70;99.90;;;;;;6095018;23;20192;-87
2022/03/23 05:56:14;;;;;;;21.60;13.30;;;5.10;99.90;;;;;;6092194;23;20226;-88
2022/03/23 05:58:42;;;;;;;23.27;13.70;;;5.20;99.90;;;;;;6085189;23;20185;-89
2022/03/23 06:01:11;;;;;;;20.92;14.00;;;4.80;99.90;;;;;;6084933;23;20178;-88
2022/03/23 06:03:38;;;;;;;16.60;12.75;;;5.20;99.90;;;;;;6083567;23;20205;-87
2022/03/23 06:06:06;;;;;;;20.00;14.77;;;5.10;99.90;;;;;;6079751;23;20333;-87
2022/03/23 06:08:46;;;;;;;22.23;13.35;;;5.20;99.90;;;;;;6077775;23;20173;-86
2022/03/23 06:11:25;;;;;;;22.10;14.88;;;5.20;99.90;;;;;;6088181;23;20173;-86
2022/03/23 06:13:58;;;;;;;20.83;14.25;;;5.20;99.90;;;;;;6089153;23;20197;-88
2022/03/23 06:16:31;;;;;;;24.88;14.10;;;5.30;99.90;;;;;;6083752;23;20650;-87
2022/03/23 06:19:01;;;;;;;19.75;13.82;;;5.20;99.90;;;;;;6081544;23;20169;-87
2022/03/23 06:21:31;;;;;;;23.23;14.82;;;5.00;99.90;;;;;;6081005;23;20192;-87
2022/03/23 06:23:58;;;;;;;25.38;14.40;;;5.30;99.90;;;;;;6085488;23;20203;-87
2022/03/23 06:26:25;;;;;;;23.95;15.70;;;4.90;99.90;;;;;;6089579;23;20217;-86
2022/03/23 06:28:56;;;;;;;20.80;13.68;;;5.40;99.90;;;;;;6087021;23;20200;-88
2022/03/23 06:31:25;;;;;;;23.88;16.20;;;5.40;99.90;;;;;;6081942;23;20188;-87
2022/03/23 06:33:53;;;;;;;22.00;15.30;;;5.50;99.90;;;;;;6079752;23;20260;-87
2022/03/23 06:36:22;;;;;;;23.35;15.88;;;5.60;99.90;;;;;;6093166;23;20182;-87
2022/03/23 06:38:50;;;;;;;23.48;15.18;;;5.60;99.90;;;;;;6085970;23;20189;-87
2022/03/23 06:41:19;;;;;;;25.45;15.60;;;5.40;99.90;;;;;;6089676;23;20188;-85
2022/03/23 06:43:46;;;;;;;24.88;15.02;;;5.80;99.90;;;;;;6091120;23;20261;-85
2022/03/23 06:46:13;;;;;;;23.92;15.23;;;6.00;99.90;;;;;;6084396;23;20253;-86
2022/03/23 06:48:50;;;;;;;22.05;14.88;;;6.10;99.90;;;;;;6080275;23;20177;-88
2022/03/23 06:51:19;;;;;;;25.50;16.40;;;6.20;99.90;;;;;;6081154;23;20189;-86
2022/03/23 06:53:48;;;;;;;27.63;15.93;;;6.30;99.90;;;;;;6077807;23;20202;-86
2022/03/23 06:59:19;;;;;;;19.63;14.55;;;6.50;99.90;;;;;;6051211;23;20201;-86
2022/03/23 07:02:03;;;;;;;25.58;16.27;;;6.60;99.90;;;;;;6077408;23;20672;-86
2022/03/23 07:04:33;;;;;;;23.30;16.42;;;6.70;99.90;;;;;;6077918;23;20201;-87
2022/03/23 07:07:13;;;;;;;22.85;15.23;;;6.60;99.90;;;;;;6078105;23;20178;-87
2022/03/23 07:09:45;;;;;;;24.27;17.23;;;6.80;99.90;;;;;;6077395;23;20174;-89
2022/03/23 07:12:39;;;;;;;24.85;16.80;;;6.80;99.90;;;;;;6079373;23;20169;-88
2022/03/23 07:15:15;;;;;;;26.33;16.88;;;6.90;99.90;;;;;;6083784;23;20170;-89
2022/03/23 07:17:52;;;;;;;29.63;16.80;;;7.00;99.70;;;;;;6095408;23;20157;-88
2022/03/23 07:20:43;;;;;;;27.88;16.15;;;7.10;99.30;;;;;;6079585;23;20233;-87
2022/03/23 07:23:19;;;;;;;23.55;16.13;;;7.20;99.00;;;;;;6079352;23;20304;-87
2022/03/23 07:25:54;;;;;;;32.97;17.80;;;7.30;98.80;;;;;;6092288;23;20161;-86
2022/03/23 07:28:39;;;;;;;27.20;18.65;;;7.40;98.60;;;;;;6095997;23;20161;-87
2022/03/23 07:40:49;;;;;;;27.50;18.07;;;7.90;97.50;;;;;;6071678;23;20489;-86
2022/03/23 07:50:38;;;;;;;26.50;18.67;;;8.30;96.10;;;;;;5721478;25;20197;-86
2022/03/23 07:53:15;;;;;;;30.73;18.93;;;8.50;95.70;;;;;;5850042;24;20965;-86
2022/03/23 07:55:57;;;;;;;26.00;17.43;;;8.60;95.50;;;;;;5998580;23;20512;-87
2022/03/23 07:58:39;;;;;;;26.90;17.70;;;8.80;95.00;;;;;;6076889;23;20417;-88
2022/03/23 08:01:09;;;;;;;28.37;18.53;;;9.00;94.50;;;;;;6079056;23;20433;-89
2022/03/23 08:03:41;;;;;;;27.17;17.90;;;9.10;94.20;;;;;;6077965;23;20532;-86
2022/03/23 08:06:20;;;;;;;24.17;17.87;;;9.10;94.20;;;;;;6078225;23;20437;-86
2022/03/23 08:09:09;;;;;;;29.27;18.97;;;9.20;94.00;;;;;;6079787;23;20405;-87
2022/03/23 08:15:07;;;;;;;25.53;19.53;;;9.40;93.70;;;;;;6084557;23;20396;-86
2022/03/23 08:18:21;;;;;;;26.93;19.43;;;9.50;93.30;;;;;;6094796;23;20406;-87
2022/03/23 08:24:01;;;;;;;28.50;17.50;;;9.70;92.70;;;;;;6093555;23;20468;-87
2022/03/23 08:49:47;;;;;;;27.03;19.37;;;11.40;85.30;;;;;;6086132;23;20415;-86
2022/03/23 09:06:30;;;;;;;35.00;20.00;;;11.80;81.60;;;;;;6073685;23;20428;-87
2022/03/23 09:09:18;;;;;;;27.77;20.10;;;11.90;80.90;;;;;;6078606;23;20403;-86
2022/03/23 09:12:06;;;;;;;28.23;19.60;;;12.10;79.70;;;;;;6075543;23;20407;-87
2022/03/23 09:14:49;;;;;;;;;;;;;;;;;;;;;
2022/03/23 09:17:43;;;;;;;29.10;21.07;;;12.40;77.10;;;;;;6079254;23;20381;-86
2022/03/23 09:20:32;;;;;;;26.97;17.63;;;12.40;76.90;;;;;;6077268;23;20784;-87
2022/03/23 09:23:04;;;;;;;29.17;19.40;;;12.50;74.50;;;;;;6075423;23;20457;-86
2022/03/23 09:29:24;;;;;;;31.83;18.03;;;12.60;73.60;;;;;;6044183;23;20453;-89
2022/03/23 09:35:39;;;;;;;24.03;18.57;;;12.70;71.30;;;;;;6035209;23;20393;-88
2022/03/23 09:42:11;;;;;;;31.00;18.53;;;12.80;69.20;;;;;;5991979;24;20431;-88
2022/03/23 09:57:55;;;;;;;;;;;;;;;;;;;;;
2022/03/23 10:01:08;;;;;;;31.60;18.77;;;13.50;66.20;;;;;;5960713;24;20452;-85
2022/03/23 10:04:41;;;;;;;26.70;20.07;;;13.80;68.90;;;;;;6000974;23;20473;-87
2022/03/23 10:11:03;;;;;;;;;;;;;;;;;;;;;
2022/03/23 10:14:13;;;;;;;22.80;15.90;;;14.20;62.00;;;;;;6027004;23;20535;-86
2022/03/23 10:17:13;;;;;;;22.50;15.90;;;14.20;59.90;;;;;;6078672;23;20496;-87
2022/03/23 10:26:27;;;;;;;17.53;12.00;;;14.50;55.00;;;;;;6074981;23;20448;-85
2022/03/23 10:36:27;;;;;;;;;;;;;;;;;;;;;
2022/03/23 11:03:50;;;;;;;14.60;12.43;;;15.50;47.40;;;;;;5905779;24;20407;-86
2022/03/23 11:21:08;;;;;;;13.50;11.77;;;15.90;42.70;;;;;;6049221;23;20385;-85
2022/03/23 11:24:24;;;;;;;;;;;;;;;;;;;;;
2022/03/23 11:30:38;;;;;;;;;;;;;;;;;;;;;
2022/03/23 11:36:42;;;;;;;12.60;10.07;;;16.20;42.30;;;;;;5959438;24;20385;-86
2022/03/23 11:39:34;;;;;;;11.33;8.17;;;16.20;40.90;;;;;;5960020;24;20542;-87
2022/03/23 11:42:03;;;;;;;14.30;10.83;;;16.20;41.00;;;;;;6048168;23;20404;-87
2022/03/23 11:44:46;;;;;;;16.00;12.20;;;16.20;41.10;;;;;;6046578;23;20433;-85
2022/03/23 12:24:58;;;;;;;12.60;9.10;;;17.00;36.50;;;;;;5969251;24;20524;-85
2022/03/23 12:28:05;;;;;;;;;;;;;;;;;;;;;
2022/03/23 12:34:40;;;;;;;16.40;10.60;;;17.10;38.80;;;;;;5944970;24;20822;-87
2022/03/23 12:37:25;;;;;;;17.30;11.40;;;17.00;37.90;;;;;;6063791;23;20389;-86
2022/03/23 12:40:30;;;;;;;15.10;11.13;;;17.00;38.50;;;;;;6051980;23;20466;-87
2022/03/23 13:01:12;;;;;;;12.87;10.47;;;17.30;39.30;;;;;;5982676;23;20477;-87
2022/03/23 13:07:03;;;;;;;16.50;11.73;;;17.40;37.40;;;;;;5981547;23;20400;-87
2022/03/23 13:09:51;;;;;;;17.30;11.53;;;17.40;38.20;;;;;;6051454;23;20782;-87
2022/03/23 13:12:27;;;;;;;14.83;11.60;;;17.40;38.30;;;;;;6049724;23;20856;-87
2022/03/23 13:15:16;;;;;;;15.00;11.60;;;17.40;38.30;;;;;;6055094;23;20438;-86
2022/03/23 13:18:18;;;;;;;16.50;11.73;;;17.50;39.00;;;;;;6057277;23;20407;-87
2022/03/23 13:34:01;;;;;;;12.70;10.13;;;17.80;37.20;;;;;;5941625;24;20509;-86
2022/03/23 13:37:06;;;;;;;12.70;10.97;;;17.70;36.10;;;;;;5991482;23;20429;-87
2022/03/23 13:39:49;;;;;;;13.07;10.27;;;17.70;35.40;;;;;;6049673;23;20478;-87
2022/03/23 13:45:25;;;;;;;16.33;11.03;;;17.80;35.30;;;;;;6064651;23;20495;-86
2022/03/23 13:48:10;;;;;;;12.23;9.67;;;17.90;34.50;;;;;;6058444;23;20395;-87
2022/03/23 13:50:46;;;;;;;14.83;10.67;;;17.90;33.10;;;;;;6063179;23;20497;-86
2022/03/23 13:53:42;;;;;;;15.87;11.70;;;17.90;33.50;;;;;;6059266;23;20409;-87
2022/03/23 13:56:12;;;;;;;13.83;11.77;;;17.90;36.20;;;;;;6051045;23;20426;-87
2022/03/23 13:58:49;;;;;;;13.90;11.60;;;18.00;37.20;;;;;;6050315;23;20820;-86
2022/03/23 14:01:23;;;;;;;16.73;11.80;;;18.10;36.30;;;;;;6050687;23;20479;-87
2022/03/23 14:04:20;;;;;;;13.13;10.70;;;18.10;36.90;;;;;;6049535;23;20505;-85
2022/03/23 14:06:58;;;;;;;17.43;11.53;;;18.20;36.60;;;;;;6057311;23;20415;-86
2022/03/23 14:12:22;;;;;;;13.40;11.73;;;18.20;36.50;;;;;;6049349;23;20403;-86
2022/03/23 14:15:00;;;;;;;14.50;10.40;;;18.20;36.90;;;;;;6047823;23;20438;-86
2022/03/23 14:17:37;;;;;;;14.10;10.30;;;18.20;35.70;;;;;;6049139;23;20377;-86
2022/03/23 14:20:56;;;;;;;13.37;11.57;;;18.30;35.10;;;;;;6056764;23;20435;-87
2022/03/23 14:26:46;;;;;;;15.10;10.30;;;18.40;37.40;;;;;;6051246;23;20474;-87
2022/03/23 14:29:22;;;;;;;15.00;11.90;;;18.50;37.00;;;;;;6049605;23;20423;-87
2022/03/23 14:31:55;;;;;;;17.00;13.57;;;18.40;36.80;;;;;;6051467;23;20865;-86
2022/03/23 14:34:30;;;;;;;14.20;12.30;;;18.50;36.90;;;;;;6050604;23;20453;-86
2022/03/23 14:37:33;;;;;;;14.50;12.30;;;18.50;36.90;;;;;;6050596;23;20422;-86
2022/03/23 14:40:36;;;;;;;16.37;13.00;;;18.60;37.60;;;;;;6050633;23;20464;-87
2022/03/23 14:43:37;;;;;;;14.17;12.07;;;18.60;37.60;;;;;;6049473;23;20429;-88
2022/03/23 14:46:59;;;;;;;15.47;11.30;;;18.60;36.80;;;;;;6049028;23;20436;-88
2022/03/23 14:49:51;;;;;;;14.20;11.43;;;18.60;36.90;;;;;;6050711;23;20423;-86
2022/03/23 14:52:43;;;;;;;15.63;12.60;;;18.60;36.30;;;;;;6061380;23;20481;-86
2022/03/23 14:55:15;;;;;;;15.90;12.37;;;18.60;36.30;;;;;;6053456;23;20901;-86
2022/03/23 14:57:51;;;;;;;15.40;12.10;;;18.60;36.50;;;;;;6052541;23;20388;-86
2022/03/23 15:00:21;;;;;;;15.13;12.33;;;18.60;37.10;;;;;;6050436;23;20417;-86
2022/03/23 15:02:51;;;;;;;14.93;12.30;;;18.70;37.50;;;;;;6055017;23;20485;-86
2022/03/23 15:13:40;;;;;;;18.60;12.60;;;18.90;36.40;;;;;;5997516;23;20536;-87
2022/03/23 15:16:17;;;;;;;15.87;12.93;;;19.00;36.60;;;;;;6050947;23;20792;-87
2022/03/23 15:18:47;;;;;;;17.50;14.37;;;18.90;37.40;;;;;;6052754;23;20418;-87
2022/03/23 15:21:17;;;;;;;14.80;12.20;;;19.00;37.00;;;;;;6065007;23;20394;-85
2022/03/23 15:23:49;;;;;;;17.97;14.40;;;19.10;36.80;;;;;;6066033;23;20453;-84
2022/03/23 15:26:23;;;;;;;14.93;13.33;;;19.30;36.80;;;;;;6060057;23;20442;-86
2022/03/23 15:28:54;;;;;;;21.07;12.80;;;19.30;36.50;;;;;;6061602;23;20499;-86
2022/03/23 15:31:26;;;;;;;17.50;14.03;;;19.40;35.80;;;;;;6064770;23;20474;-85
2022/03/23 15:33:54;;;;;;;18.30;11.90;;;19.50;35.90;;;;;;6063795;23;20434;-86
2022/03/23 15:37:24;;;;;;;16.00;13.80;;;19.60;36.10;;;;;;6059343;23;20414;-87
2022/03/23 15:39:56;;;;;;;16.70;12.20;;;19.40;36.90;;;;;;6035113;23;20866;-86
2022/03/23 15:45:23;;;;;;;16.33;12.40;;;19.30;36.90;;;;;;6052709;23;20474;-87
2022/03/23 15:47:59;;;;;;;16.03;12.87;;;19.40;36.30;;;;;;6055973;23;20437;-86
2022/03/23 15:50:26;;;;;;;13.43;11.33;;;19.50;36.00;;;;;;6052120;23;20478;-88
2022/03/23 15:52:54;;;;;;;13.37;11.23;;;19.30;35.70;;;;;;6051927;23;20513;-87
2022/03/23 15:55:21;;;;;;;15.53;11.90;;;19.30;35.50;;;;;;6051822;23;20438;-87
2022/03/23 15:57:51;;;;;;;14.47;11.53;;;19.10;35.70;;;;;;6053679;23;20891;-87
2022/03/23 16:00:28;;;;;;;14.57;11.23;;;19.30;36.00;;;;;;6054069;23;20430;-86
2022/03/23 16:02:58;;;;;;;14.70;10.90;;;19.40;36.30;;;;;;6052997;23;20425;-86
2022/03/23 16:05:26;;;;;;;14.33;12.17;;;19.30;36.20;;;;;;6051571;23;20509;-86
2022/03/23 16:07:53;;;;;;;15.30;12.23;;;19.00;36.00;;;;;;6052558;23;20560;-86
2022/03/23 16:10:26;;;;;;;16.73;11.03;;;18.80;36.30;;;;;;6062442;23;20423;-86
2022/03/23 16:12:57;;;;;;;13.20;11.47;;;18.70;36.50;;;;;;6061130;23;20477;-88
2022/03/23 16:15:32;;;;;;;14.30;11.67;;;18.70;36.40;;;;;;6057780;23;20437;-87
2022/03/23 16:18:00;;;;;;;21.90;12.60;;;18.60;37.50;;;;;;6061816;23;20521;-88
2022/03/23 16:20:42;;;;;;;13.60;11.40;;;18.50;37.00;;;;;;6052073;23;20411;-88
2022/03/23 16:23:11;;;;;;;15.27;12.93;;;18.50;37.10;;;;;;6051054;23;20389;-87
2022/03/23 16:25:41;;;;;;;15.27;12.57;;;18.40;37.40;;;;;;6051197;23;20493;-86
2022/03/23 16:28:12;;;;;;;17.90;12.83;;;18.40;37.60;;;;;;6052152;23;20422;-87
2022/03/23 16:30:43;;;;;;;16.07;12.70;;;18.40;37.70;;;;;;6052653;23;20719;-86
2022/03/23 16:33:17;;;;;;;14.57;12.57;;;18.20;38.20;;;;;;6054709;23;20403;-86
2022/03/23 16:35:52;;;;;;;19.60;12.23;;;18.30;38.40;;;;;;6054459;23;20401;-86
2022/03/23 16:38:20;;;;;;;14.63;11.40;;;18.30;37.70;;;;;;6054223;23;20399;-86
2022/03/23 16:40:47;;;;;;;12.70;10.90;;;18.30;37.70;;;;;;6048943;23;20422;-86
2022/03/23 16:43:17;;;;;;;15.47;12.07;;;18.20;37.30;;;;;;6046365;23;20492;-86
2022/03/23 16:45:44;;;;;;;14.77;11.10;;;18.10;37.60;;;;;;6049073;23;20482;-85
2022/03/23 16:48:12;;;;;;;16.67;12.70;;;18.10;37.40;;;;;;6051273;23;20867;-85
2022/03/23 17:02:02;;;;;;;13.93;11.50;;;17.90;38.10;;;;;;6084591;23;20420;-88
2022/03/23 17:14:27;;;;;;;16.00;11.13;;;17.70;38.40;;;;;;5891445;24;20419;-89
2022/03/23 17:17:35;;;;;;;;;;;;;;;;;;;;;
2022/03/23 17:36:05;;;;;;;17.20;12.70;;;17.30;39.70;;;;;;5913853;24;20496;-86
2022/03/23 17:38:48;;;;;;;16.60;11.70;;;17.20;40.40;;;;;;6055430;23;20396;-87
2022/03/23 17:41:40;;;;;;;19.87;10.73;;;17.00;40.20;;;;;;6078166;23;20436;-86
2022/03/23 17:44:34;;;;;;;16.33;10.60;;;17.00;40.60;;;;;;6083476;23;20477;-86
2022/03/23 17:47:10;;;;;;;23.30;13.60;;;16.90;42.40;;;;;;6071648;23;20453;-86
2022/03/23 17:49:54;;;;;;;15.80;11.30;;;16.90;41.90;;;;;;6075074;23;20477;-87
2022/03/23 17:52:58;;;;;;;15.60;12.00;;;16.80;41.50;;;;;;6081934;23;20465;-86
2022/03/23 17:55:28;;;;;;;16.90;11.47;;;16.70;42.30;;;;;;6077054;23;20396;-86
2022/03/23 17:57:55;;;;;;;17.63;11.63;;;16.50;42.80;;;;;;6079254;23;20395;-87
2022/03/23 18:00:24;;;;;;;18.80;12.20;;;16.50;43.00;;;;;;6077100;23;20548;-87
2022/03/23 18:02:51;;;;;;;16.83;11.50;;;16.40;43.40;;;;;;6075784;23;20489;-87
2022/03/23 18:05:18;;;;;;;17.87;14.73;;;16.30;44.10;;;;;;6078680;23;20399;-86
2022/03/23 18:07:45;;;;;;;16.23;12.43;;;16.30;45.30;;;;;;6078938;23;20409;-86
2022/03/23 18:10:13;;;;;;;22.77;12.57;;;16.10;45.00;;;;;;6078106;23;20438;-86
2022/03/23 18:12:40;;;;;;;20.33;12.87;;;16.00;45.70;;;;;;6079152;23;20402;-86
2022/03/23 18:15:14;;;;;;;15.87;10.10;;;15.80;46.20;;;;;;6080076;23;20478;-86
2022/03/23 18:17:44;;;;;;;18.50;11.13;;;15.70;46.70;;;;;;6084157;23;20372;-85
2022/03/23 18:20:11;;;;;;;18.87;11.30;;;15.70;47.10;;;;;;6079658;23;20477;-87